Time;durP1;ratioP1;P1;durP2;ratioP2;P2;SDS_P1;SDS_P2;PMS_P1;PMS_P2;Temp;Humidity;BMP_temperature;BMP_pressure;BME280_temperature;BME280_humidity;BME280_pressure;Samples;Min_cycle;Max_cycle;Signal;HPM_P1;HPM_P2
2022/06/25 00:01:06;;;;;;;;;1.00;1.00;;;;;21.43;50.19;100442.75;5015630;28;45446;-72
2022/06/25 00:03:32;;;;;;;;;1.00;1.00;;;;;21.54;50.26;100459.75;5014306;28;45581;-73
2022/06/25 00:05:57;;;;;;;;;2.00;2.00;;;;;21.42;49.97;100430.13;5014102;28;45260;-72
2022/06/25 00:08:23;;;;;;;;;2.00;2.00;;;;;21.58;50.28;100456.03;5029985;28;47315;-73
2022/06/25 00:10:49;;;;;;;;;3.00;2.00;;;;;21.48;50.06;100438.13;5015549;28;45453;-73
2022/06/25 00:13:14;;;;;;;;;2.33;2.33;;;;;21.41;50.52;100428.31;5015063;28;45408;-73
2022/06/25 00:15:39;;;;;;;;;2.00;2.00;;;;;21.64;50.25;100455.88;5015867;28;45428;-74
2022/06/25 00:18:05;;;;;;;;;1.33;1.33;;;;;21.60;50.67;100461.44;5016193;28;45605;-73
2022/06/25 00:20:30;;;;;;;;;3.00;2.00;;;;;21.35;51.10;100424.81;5019103;28;45339;-72
2022/06/25 00:22:56;;;;;;;;;5.33;5.33;;;;;21.48;51.84;100441.78;5023883;28;45641;-72
2022/06/25 00:25:21;;;;;;;;;2.00;2.00;;;;;21.54;52.25;100467.91;5025654;28;45485;-72
2022/06/25 00:27:46;;;;;;;;;8.33;5.33;;;;;21.27;53.27;100410.50;5032692;28;45102;-71
2022/06/25 00:30:12;;;;;;;;;2.67;2.00;;;;;21.45;53.26;100455.38;5017178;28;45514;-73
2022/06/25 00:32:38;;;;;;;;;1.67;1.67;;;;;21.50;53.48;100464.38;5015013;28;45515;-73
2022/06/25 00:35:04;;;;;;;;;3.33;1.67;;;;;21.38;54.02;100445.56;5014786;28;45525;-73
2022/06/25 00:37:30;;;;;;;;;3.00;3.00;;;;;21.06;54.37;100408.28;5010709;28;46038;-72
2022/06/25 00:39:56;;;;;;;;;2.00;1.00;;;;;21.31;54.73;100452.09;5009862;28;45800;-72
2022/06/25 00:42:21;;;;;;;;;2.00;2.00;;;;;21.36;54.54;100466.47;5013421;28;45391;-72
2022/06/25 00:44:47;;;;;;;;;1.33;1.33;;;;;21.15;54.56;100432.50;5027506;28;45385;-72
2022/06/25 00:47:13;;;;;;;;;1.67;1.33;;;;;21.19;54.66;100449.66;5029440;28;45561;-72
2022/06/25 00:49:40;;;;;;;;;2.00;2.00;;;;;20.99;55.24;100429.25;5015023;28;45630;-72
2022/06/25 00:52:14;;;;;;;;;2.67;2.00;;;;;21.00;54.71;100439.19;5016164;28;45536;-72
2022/06/25 00:54:48;;;;;;;;;4.00;2.67;;;;;21.13;55.16;100470.56;5021005;28;45502;-72
2022/06/25 00:57:19;;;;;;;;;2.00;1.00;;;;;21.13;54.94;100480.56;5014446;28;45450;-73
2022/06/25 00:59:48;;;;;;;;;4.33;1.33;;;;;20.93;54.85;100443.84;5014242;28;45336;-72
2022/06/25 01:02:13;;;;;;;;;3.00;3.00;;;;;21.11;55.38;100472.44;5014800;28;45501;-72
2022/06/25 01:04:38;;;;;;;;;1.33;1.33;;;;;21.13;55.20;100478.72;5014337;28;45588;-72
2022/06/25 01:07:04;;;;;;;;;1.00;1.00;;;;;21.04;55.50;100454.50;5014918;28;45994;-72
2022/06/25 01:09:30;;;;;;;;;2.00;2.00;;;;;21.09;55.37;100471.59;5015354;28;45684;-72
2022/06/25 01:11:55;;;;;;;;;3.00;3.00;;;;;21.10;55.36;100484.25;5015042;28;45430;-72
2022/06/25 01:14:21;;;;;;;;;4.00;2.33;;;;;21.09;55.30;100470.69;5015610;28;45515;-73
2022/06/25 01:16:46;;;;;;;;;2.00;2.00;;;;;21.10;55.50;100467.94;5013927;28;46061;-72
2022/06/25 01:19:12;;;;;;;;;4.00;2.00;;;;;21.12;54.87;100468.81;5014206;28;45450;-72
2022/06/25 01:21:40;;;;;;;;;2.00;2.00;;;;;20.97;54.50;100444.69;5013624;28;45360;-72
2022/06/25 01:24:06;;;;;;;;;1.67;1.67;;;;;20.74;54.51;100409.84;5014396;28;45267;-72
2022/06/25 01:26:36;;;;;;;;;2.00;2.00;;;;;20.95;54.77;100450.16;5027185;28;45517;-72
2022/06/25 01:29:03;;;;;;;;;4.00;3.00;;;;;21.10;54.37;100467.03;5022160;28;45124;-73
2022/06/25 01:31:29;;;;;;;;;3.00;2.67;;;;;20.98;54.82;100451.91;5014468;28;45594;-72
2022/06/25 01:33:54;;;;;;;;;2.00;1.00;;;;;20.87;54.62;100427.72;5014019;28;45426;-72
2022/06/25 01:36:20;;;;;;;;;3.00;2.00;;;;;21.06;54.40;100470.75;5020110;28;45470;-71
2022/06/25 01:38:45;;;;;;;;;2.00;2.00;;;;;21.06;54.53;100463.50;5013266;28;45376;-73
2022/06/25 01:41:10;;;;;;;;;1.00;1.00;;;;;21.13;54.78;100477.84;5018181;28;45335;-72
2022/06/25 01:43:36;;;;;;;;;3.00;3.00;;;;;21.04;54.38;100461.75;5016656;28;45554;-72
2022/06/25 01:46:03;;;;;;;;;2.33;2.33;;;;;21.10;54.45;100470.66;5014364;28;45416;-72
2022/06/25 01:48:29;;;;;;;;;2.33;2.33;;;;;21.13;54.26;100472.41;5016032;28;45717;-72
2022/06/25 01:50:54;;;;;;;;;2.00;1.33;;;;;21.11;54.24;100474.28;5017914;28;45320;-73
2022/06/25 01:53:19;;;;;;;;;4.00;3.00;;;;;20.90;54.14;100449.34;5016395;28;45517;-71
2022/06/25 01:55:45;;;;;;;;;1.00;1.00;;;;;20.99;54.67;100464.56;5014920;28;46144;-72
2022/06/25 01:58:10;;;;;;;;;1.67;1.67;;;;;21.00;54.71;100474.47;5014252;28;45392;-72
2022/06/25 02:00:35;;;;;;;;;1.67;1.67;;;;;20.95;54.82;100482.75;5012107;28;45600;-72
2022/06/25 02:03:01;;;;;;;;;1.67;1.67;;;;;20.91;54.96;100480.13;5013776;28;45281;-73
2022/06/25 02:08:15;;;;;;;;;3.00;1.67;;;;;20.90;55.07;100487.34;5013779;28;45456;-72
2022/06/25 02:10:41;;;;;;;;;1.33;1.00;;;;;20.46;55.24;100404.06;5006866;28;45309;-72
2022/06/25 02:13:07;;;;;;;;;1.67;1.67;;;;;20.63;55.28;100437.25;5012621;28;45629;-72
2022/06/25 02:15:32;;;;;;;;;1.00;1.00;;;;;20.70;55.44;100452.47;5010140;28;48053;-72
2022/06/25 02:17:58;;;;;;;;;4.00;3.00;;;;;20.72;55.87;100469.66;5019841;28;45491;-72
2022/06/25 02:20:24;;;;;;;;;2.00;2.00;;;;;20.86;56.00;100487.47;5020662;28;45328;-72
2022/06/25 02:22:49;;;;;;;;;3.33;2.00;;;;;20.85;56.47;100483.84;5017016;28;45225;-72
2022/06/25 02:25:14;;;;;;;;;1.33;1.33;;;;;20.51;56.88;100438.34;5017588;28;45359;-72
2022/06/25 02:27:40;;;;;;;;;1.00;1.00;;;;;20.78;57.17;100482.19;5027520;28;45521;-73
2022/06/25 02:30:06;;;;;;;;;4.00;2.00;;;;;20.64;57.44;100474.34;5017568;28;45351;-72
2022/06/25 02:32:33;;;;;;;;;1.33;1.00;;;;;20.60;57.42;100462.56;5026007;28;45402;-72
2022/06/25 02:34:58;;;;;;;;;2.00;2.00;;;;;20.51;57.87;100461.84;5016259;28;46845;-72
2022/06/25 02:37:23;;;;;;;;;1.00;1.00;;;;;20.28;58.01;100405.31;5016199;28;45413;-72
2022/06/25 02:39:49;;;;;;;;;1.00;1.00;;;;;20.41;57.61;100420.47;5016613;28;45500;-73
2022/06/25 02:42:14;;;;;;;;;1.00;1.00;;;;;20.46;57.79;100439.34;5016712;28;45447;-73
2022/06/25 02:44:39;;;;;;;;;1.00;1.00;;;;;20.49;57.83;100461.91;5016418;28;45324;-73
2022/06/25 02:47:05;;;;;;;;;2.33;1.00;;;;;20.59;58.08;100484.31;5016518;28;45420;-72
2022/06/25 02:49:30;;;;;;;;;2.33;0.67;;;;;20.43;58.09;100454.78;5016909;28;45288;-71
2022/06/25 02:51:56;;;;;;;;;2.67;2.67;;;;;20.58;58.53;100488.88;5020687;28;45415;-73
2022/06/25 02:54:21;;;;;;;;;2.33;1.00;;;;;20.52;58.61;100488.09;5016044;28;46002;-73
2022/06/25 02:59:30;;;;;;;;;3.00;2.00;;;;;20.55;59.02;100496.19;5009953;28;45311;-72
2022/06/25 03:01:56;;;;;;;;;1.33;1.33;;;;;19.98;58.69;100404.97;5021375;28;45289;-72
2022/06/25 03:04:23;;;;;;;;;1.00;1.00;;;;;20.54;59.79;100500.72;5016510;28;45949;-72
2022/06/25 03:06:48;;;;;;;;;3.00;2.00;;;;;20.49;60.12;100497.19;5015434;28;45563;-74
2022/06/25 03:09:13;;;;;;;;;3.33;2.00;;;;;20.51;60.44;100500.78;5016665;28;45531;-72
2022/06/25 03:11:38;;;;;;;;;2.00;1.00;;;;;20.46;59.78;100493.63;5014374;28;45511;-73
2022/06/25 03:14:04;;;;;;;;;1.67;0.67;;;;;20.44;59.86;100486.44;5016385;28;53658;-73
2022/06/25 03:16:29;;;;;;;;;1.00;1.00;;;;;20.22;59.24;100452.47;5015483;28;45324;-73
2022/06/25 03:18:54;;;;;;;;;0.67;0.33;;;;;20.19;59.31;100472.38;5020377;28;45409;-73
2022/06/25 03:21:20;;;;;;;;;2.00;1.00;;;;;20.24;59.12;100477.72;5021031;28;45610;-72
2022/06/25 03:23:45;;;;;;;;;1.33;0.33;;;;;20.35;59.06;100505.56;5029936;28;45842;-72
2022/06/25 03:26:12;;;;;;;;;0.00;0.00;;;;;20.31;58.77;100498.44;5034556;28;44991;-72
2022/06/25 03:28:37;;;;;;;;;0.00;0.00;;;;;20.27;58.77;100490.38;5020346;28;45379;-72
2022/06/25 03:31:03;;;;;;;;;0.00;0.00;;;;;20.21;58.35;100503.13;5016525;28;45480;-72
2022/06/25 03:33:28;;;;;;;;;0.00;0.00;;;;;20.15;58.41;100499.63;5015525;28;47241;-74
2022/06/25 03:35:54;;;;;;;;;1.00;0.00;;;;;20.10;58.77;100494.25;5016190;28;45322;-72
2022/06/25 03:38:19;;;;;;;;;2.00;0.00;;;;;20.18;58.36;100508.59;5015563;28;45395;-73
2022/06/25 03:40:45;;;;;;;;;1.00;1.00;;;;;20.08;57.94;100482.56;5019396;28;45428;-74
2022/06/25 03:43:10;;;;;;;;;0.00;0.00;;;;;20.24;57.80;100513.00;5015581;28;46188;-72
2022/06/25 03:45:35;;;;;;;;;0.00;0.00;;;;;20.17;57.80;100519.47;5015430;28;45286;-72
2022/06/25 03:48:01;;;;;;;;;0.00;0.00;;;;;20.20;57.96;100524.84;5015970;28;45435;-73
2022/06/25 03:50:26;;;;;;;;;1.00;1.00;;;;;20.04;57.87;100503.38;5016174;28;45487;-72
2022/06/25 03:52:54;;;;;;;;;0.00;0.00;;;;;19.96;57.95;100490.88;5012433;28;48031;-73
2022/06/25 03:55:20;;;;;;;;;0.00;0.00;;;;;20.15;58.35;100521.31;5020368;28;45406;-73
2022/06/25 03:57:46;;;;;;;;;2.00;1.00;;;;;20.15;58.46;100521.31;5033399;28;45340;-74
2022/06/25 04:00:12;;;;;;;;;0.00;0.00;;;;;20.16;58.54;100525.78;5020878;28;45475;-72
2022/06/25 04:02:38;;;;;;;;;0.00;0.00;;;;;20.14;58.60;100514.09;5015628;28;45470;-72
2022/06/25 04:05:04;;;;;;;;;0.00;0.00;;;;;20.18;58.73;100526.69;5013858;28;45308;-74
2022/06/25 04:07:29;;;;;;;;;0.00;0.00;;;;;19.80;58.78;100460.41;5013281;28;45442;-72
2022/06/25 04:09:55;;;;;;;;;1.00;1.00;;;;;20.13;58.84;100518.63;5014846;28;45490;-72
2022/06/25 04:12:21;;;;;;;;;1.00;0.00;;;;;19.99;58.94;100485.41;5008246;28;45474;-74
2022/06/25 04:14:46;;;;;;;;;0.00;0.00;;;;;20.07;59.18;100505.16;5015484;28;45456;-74
2022/06/25 04:17:12;;;;;;;;;0.00;0.00;;;;;20.18;59.11;100535.72;5015074;28;45489;-73
2022/06/25 04:19:41;;;;;;;;;0.00;0.00;;;;;20.22;59.30;100534.72;5012486;28;45503;-74
2022/06/25 04:22:10;;;;;;;;;1.33;0.00;;;;;20.16;59.24;100529.44;5011912;28;46497;-72
2022/06/25 04:24:36;;;;;;;;;1.33;0.00;;;;;20.06;59.27;100515.13;5015795;28;45419;-73
2022/06/25 04:27:02;;;;;;;;;1.00;1.00;;;;;20.21;59.40;100538.38;5016073;28;45423;-73
2022/06/25 04:29:28;;;;;;;;;3.00;2.00;;;;;20.21;59.23;100530.25;5013714;28;45493;-72
2022/06/25 04:31:53;;;;;;;;;0.67;0.00;;;;;20.23;59.45;100541.97;5015880;28;45466;-72
2022/06/25 04:34:19;;;;;;;;;1.67;1.00;;;;;20.22;59.30;100523.00;5013920;28;45576;-72
2022/06/25 04:36:44;;;;;;;;;1.00;1.00;;;;;20.19;59.66;100523.91;5026220;28;45202;-74
2022/06/25 04:39:10;;;;;;;;;1.00;1.00;;;;;20.25;59.35;100528.38;5032557;28;45181;-73
2022/06/25 04:41:36;;;;;;;;;0.00;0.00;;;;;20.38;59.61;100550.75;5027805;28;46352;-73
2022/06/25 04:44:01;;;;;;;;;0.00;0.00;;;;;20.29;59.24;100540.94;5024065;28;45340;-74
2022/06/25 04:46:29;;;;;;;;;1.67;1.67;;;;;20.24;59.33;100535.63;5026275;28;45386;-72
2022/06/25 04:48:55;;;;;;;;;1.00;1.00;;;;;20.33;59.33;100545.41;5019488;28;45517;-72
2022/06/25 04:51:21;;;;;;;;;0.33;0.33;;;;;20.28;59.39;100536.47;5029400;28;45292;-74
2022/06/25 04:53:55;;;;;;;;;0.00;0.00;;;;;20.39;58.55;100549.81;5024500;28;45464;-73
2022/06/25 04:56:22;;;;;;;;;0.00;0.00;;;;;20.36;58.12;100556.22;5033292;28;45016;-72
2022/06/25 04:58:48;;;;;;;;;2.00;0.00;;;;;20.35;58.34;100551.69;5033332;28;45021;-73
2022/06/25 05:01:13;;;;;;;;;0.00;0.00;;;;;20.31;58.33;100549.97;5022236;28;46115;-72
2022/06/25 05:03:38;;;;;;;;;0.00;0.00;;;;;20.19;58.42;100525.75;5032580;28;45026;-72
2022/06/25 05:06:06;;;;;;;;;0.00;0.00;;;;;20.38;58.04;100559.78;5026622;28;46499;-72
2022/06/25 05:08:32;;;;;;;;;3.67;3.00;;;;;20.42;58.24;100568.78;5031410;28;45314;-72
2022/06/25 05:10:57;;;;;;;;;2.00;0.67;;;;;20.32;57.64;100542.72;5025158;28;45973;-73
2022/06/25 05:13:22;;;;;;;;;0.00;0.00;;;;;20.48;57.52;100568.66;5023961;28;45390;-73
2022/06/25 05:15:47;;;;;;;;;1.33;1.33;;;;;20.29;57.47;100546.38;5017368;28;45430;-72
2022/06/25 05:18:13;;;;;;;;;2.67;0.67;;;;;20.53;57.58;100588.47;5027613;28;45505;-73
2022/06/25 05:20:40;;;;;;;;;1.00;0.33;;;;;20.38;57.50;100553.47;5028431;28;45894;-72
2022/06/25 05:23:07;;;;;;;;;0.67;0.67;;;;;20.57;57.12;100579.38;5027438;28;45161;-72
2022/06/25 05:25:33;;;;;;;;;1.00;1.00;;;;;20.66;57.08;100589.19;5019198;28;45389;-73
2022/06/25 05:27:58;;;;;;;;;1.00;1.00;;;;;20.58;56.49;100577.56;5026993;28;45252;-73
2022/06/25 05:30:23;;;;;;;;;0.00;0.00;;;;;20.69;56.03;100591.88;5024466;28;45549;-73
2022/06/25 05:32:49;;;;;;;;;2.00;2.00;;;;;20.66;56.06;100586.50;5023374;28;45468;-72
2022/06/25 05:35:14;;;;;;;;;0.33;0.33;;;;;20.54;55.75;100544.16;5022569;28;45558;-74
2022/06/25 05:37:39;;;;;;;;;1.67;1.00;;;;;20.57;55.87;100560.38;5024715;28;45534;-73
2022/06/25 05:40:05;;;;;;;;;1.00;1.00;;;;;20.79;55.78;100588.06;5021497;28;46003;-73
2022/06/25 05:42:31;;;;;;;;;0.00;0.00;;;;;20.72;55.48;100570.09;5023450;28;45594;-73
2022/06/25 05:44:56;;;;;;;;;1.00;1.00;;;;;20.75;55.36;100571.84;5024868;28;45328;-72
2022/06/25 05:47:21;;;;;;;;;1.00;1.00;;;;;20.88;55.07;100586.09;5031062;28;45112;-73
2022/06/25 05:49:47;;;;;;;;;1.33;1.33;;;;;20.95;55.23;100582.31;5029261;28;45082;-74
2022/06/25 05:52:12;;;;;;;;;1.00;1.00;;;;;20.98;54.33;100585.88;5028031;28;45080;-74
2022/06/25 05:54:37;;;;;;;;;1.00;1.00;;;;;20.78;53.82;100550.06;5029153;28;45852;-74
2022/06/25 05:57:03;;;;;;;;;1.00;1.00;;;;;20.92;54.14;100579.66;5029620;28;45438;-73
2022/06/25 05:59:28;;;;;;;;;2.00;2.00;;;;;20.82;54.18;100551.78;5027158;28;45387;-74
2022/06/25 06:01:54;;;;;;;;;2.00;2.00;;;;;21.06;54.20;100580.31;5028922;28;45354;-73
2022/06/25 06:04:19;;;;;;;;;1.00;1.00;;;;;21.07;54.02;100575.75;5030312;28;45179;-73
2022/06/25 06:06:44;;;;;;;;;1.00;1.00;;;;;20.88;53.95;100558.94;5030272;28;44966;-74
2022/06/25 06:09:10;;;;;;;;;2.67;1.33;;;;;21.11;53.27;100589.25;5029408;28;45584;-74
2022/06/25 06:11:35;;;;;;;;;2.00;1.00;;;;;21.04;52.66;100579.44;5028371;28;45172;-73
2022/06/25 06:14:01;;;;;;;;;2.00;2.00;;;;;20.96;52.66;100559.69;5027770;28;45074;-73
2022/06/25 06:16:26;;;;;;;;;1.00;1.00;;;;;21.16;52.50;100595.47;5024806;28;45284;-73
2022/06/25 06:18:51;;;;;;;;;1.00;1.00;;;;;21.13;51.82;100590.09;5024529;28;45533;-73
2022/06/25 06:21:17;;;;;;;;;3.67;2.33;;;;;21.13;51.43;100568.38;5024400;28;46111;-72
2022/06/25 06:23:42;;;;;;;;;2.33;0.00;;;;;21.26;51.38;100592.59;5030255;28;45136;-73
2022/06/25 06:26:07;;;;;;;;;0.00;0.00;;;;;21.09;51.94;100566.66;5027367;28;45128;-73
2022/06/25 06:28:33;;;;;;;;;1.00;1.00;;;;;20.78;51.80;100523.81;5030238;28;45890;-73
2022/06/25 06:30:58;;;;;;;;;1.67;1.00;;;;;21.01;51.15;100570.47;5028508;28;49526;-73
2022/06/25 06:33:24;;;;;;;;;4.67;0.00;;;;;21.17;51.73;100597.28;5029120;28;44899;-73
2022/06/25 06:35:49;;;;;;;;;1.00;1.00;;;;;20.88;50.71;100545.34;5027497;28;45203;-72
2022/06/25 06:38:14;;;;;;;;;0.00;0.00;;;;;21.17;50.82;100608.16;5027878;28;45454;-72
2022/06/25 06:40:39;;;;;;;;;0.00;0.00;;;;;20.96;51.80;100568.72;5027299;28;45285;-73
2022/06/25 06:43:05;;;;;;;;;2.00;1.00;;;;;21.24;51.07;100602.59;5030322;28;45180;-73
2022/06/25 06:45:30;;;;;;;;;1.00;1.00;;;;;21.27;49.65;100608.88;5030798;28;45128;-73
2022/06/25 06:47:56;;;;;;;;;2.67;1.00;;;;;21.03;49.53;100558.63;5027925;28;45408;-74
2022/06/25 06:50:21;;;;;;;;;0.00;0.00;;;;;21.19;50.24;100574.63;5027389;28;45253;-74
2022/06/25 06:52:46;;;;;;;;;2.00;2.00;;;;;20.93;50.68;100535.28;5028763;28;45087;-73
2022/06/25 06:55:12;;;;;;;;;1.33;1.00;;;;;21.31;51.07;100605.16;5029657;28;44911;-73
2022/06/25 06:57:37;;;;;;;;;0.00;0.00;;;;;20.82;50.88;100527.34;5030105;28;45108;-73
2022/06/25 07:00:06;;;;;;;;;1.33;0.67;;;;;21.20;50.94;100600.84;5028201;28;45797;-72
2022/06/25 07:02:32;;;;;;;;;0.00;0.00;;;;;21.23;50.83;100607.13;5030937;28;45103;-74
2022/06/25 07:04:57;;;;;;;;;1.67;1.00;;;;;21.22;50.91;100612.59;5033593;28;45687;-72
2022/06/25 07:07:23;;;;;;;;;2.00;0.33;;;;;21.26;51.33;100608.91;5032768;28;46039;-72
2022/06/25 07:09:49;;;;;;;;;0.00;0.00;;;;;21.04;50.86;100551.41;5032398;28;45195;-72
2022/06/25 07:12:14;;;;;;;;;3.00;1.00;;;;;21.35;51.37;100606.00;5032518;28;45303;-74
2022/06/25 07:14:39;;;;;;;;;3.67;3.00;;;;;21.32;51.80;100596.09;5031948;28;45041;-74
2022/06/25 07:17:05;;;;;;;;;4.33;3.00;;;;;21.40;52.08;100606.81;5029059;28;49378;-74
2022/06/25 07:19:30;;;;;;;;;0.00;0.00;;;;;21.49;51.84;100611.19;5031714;28;48137;-73
2022/06/25 07:21:57;;;;;;;;;1.33;1.33;;;;;21.57;51.14;100605.59;5031996;28;45883;-73
2022/06/25 07:24:22;;;;;;;;;2.67;1.00;;;;;21.38;50.70;100581.47;5033080;28;45242;-73
2022/06/25 07:26:48;;;;;;;;;1.33;0.00;;;;;21.61;50.09;100615.44;5032362;28;44973;-73
2022/06/25 07:29:13;;;;;;;;;1.00;1.00;;;;;21.60;48.69;100619.13;5033665;28;45187;-73
2022/06/25 07:31:39;;;;;;;;;1.67;0.67;;;;;21.43;48.91;100587.72;5032524;28;45140;-75
2022/06/25 07:34:04;;;;;;;;;1.00;0.00;;;;;21.60;48.54;100610.97;5032197;28;45190;-76
2022/06/25 07:36:29;;;;;;;;;1.33;1.00;;;;;21.61;47.90;100605.47;5031713;28;44960;-75
2022/06/25 07:38:55;;;;;;;;;0.67;0.67;;;;;21.64;47.88;100605.41;5033453;28;45252;-75
2022/06/25 07:41:21;;;;;;;;;5.00;5.00;;;;;21.30;47.43;100534.53;5032747;28;44990;-76
2022/06/25 07:43:46;;;;;;;;;2.33;2.00;;;;;21.94;47.44;100629.25;5030059;28;45148;-74
2022/06/25 07:46:12;;;;;;;;;1.00;1.00;;;;;21.74;46.85;100587.06;5029618;28;45176;-76
2022/06/25 07:48:38;;;;;;;;;0.00;0.00;;;;;21.85;46.48;100593.16;5033013;28;45112;-75
2022/06/25 07:53:47;;;;;;;;;1.00;1.00;;;;;22.11;45.82;100626.13;5031869;28;45144;-75
2022/06/25 07:56:13;;;;;;;;;1.33;1.33;;;;;22.21;45.50;100625.88;5031541;28;45211;-76
2022/06/25 07:58:38;;;;;;;;;1.00;1.00;;;;;21.92;46.23;100574.00;5032370;28;44954;-75
2022/06/25 08:01:04;;;;;;;;;0.67;0.00;;;;;22.27;46.30;100636.63;5031453;28;45044;-74
2022/06/25 08:03:29;;;;;;;;;2.33;1.00;;;;;22.33;46.58;100648.34;5034398;28;45167;-76
2022/06/25 08:05:56;;;;;;;;;1.33;1.00;;;;;22.33;46.12;100643.78;5031841;28;47733;-75
2022/06/25 08:08:22;;;;;;;;;4.33;2.67;;;;;22.27;44.99;100649.31;5032957;28;45158;-75
2022/06/25 08:10:47;;;;;;;;;3.00;2.00;;;;;22.18;44.79;100642.28;5025948;28;45551;-75
2022/06/25 08:13:13;;;;;;;;;3.00;0.33;;;;;22.13;45.13;100648.78;5030085;28;46019;-74
2022/06/25 08:15:38;;;;;;;;;1.00;1.00;;;;;22.01;45.24;100633.59;5028809;28;45061;-77
2022/06/25 08:18:04;;;;;;;;;1.67;0.67;;;;;21.96;45.53;100622.84;5026726;28;45498;-74
2022/06/25 08:20:29;;;;;;;;;1.00;1.00;;;;;22.06;45.74;100634.41;5029252;28;45273;-74
2022/06/25 08:22:54;;;;;;;;;2.33;1.00;;;;;21.70;45.64;100583.53;5027527;28;45091;-74
2022/06/25 08:25:20;;;;;;;;;1.00;1.00;;;;;21.89;46.41;100610.31;5025368;28;45778;-74
2022/06/25 08:27:50;;;;;;;;;2.67;2.67;;;;;22.02;46.21;100629.97;5025605;28;45002;-73
2022/06/25 08:30:17;;;;;;;;;1.00;1.00;;;;;22.13;47.07;100632.44;5029110;28;45123;-75
2022/06/25 08:32:43;;;;;;;;;3.00;3.00;;;;;22.23;46.16;100634.03;5031013;28;45680;-74
2022/06/25 08:35:09;;;;;;;;;2.67;1.33;;;;;22.32;45.41;100641.97;5031630;28;45566;-74
2022/06/25 08:37:53;;;;;;;;;3.67;2.00;;;;;22.22;45.69;100649.47;5032427;28;45120;-74
2022/06/25 08:40:20;;;;;;;;;4.00;2.00;;;;;22.38;45.61;100670.91;5031550;28;45081;-74
2022/06/25 08:42:49;;;;;;;;;1.00;1.00;;;;;22.37;46.25;100670.00;5030567;28;45199;-73
2022/06/25 08:45:17;;;;;;;;;2.67;1.67;;;;;22.00;45.86;100604.63;5029928;28;45377;-74
2022/06/25 08:47:51;;;;;;;;;1.67;1.67;;;;;22.29;45.16;100668.38;5026497;28;45351;-75
2022/06/25 08:50:21;;;;;;;;;3.00;1.00;;;;;22.22;45.68;100668.50;5020056;28;45450;-74
2022/06/25 08:52:51;;;;;;;;;1.00;1.00;;;;;22.19;45.17;100664.94;5026052;28;45185;-74
2022/06/25 08:55:36;;;;;;;;;2.00;1.00;;;;;22.22;45.95;100673.03;5030563;28;45263;-74
2022/06/25 08:58:03;;;;;;;;;1.00;1.00;;;;;22.15;45.67;100650.50;5027773;28;45235;-73
2022/06/25 09:00:30;;;;;;;;;5.00;3.67;;;;;22.19;45.60;100665.84;5031713;28;45301;-74
2022/06/25 09:02:55;;;;;;;;;3.67;2.00;;;;;22.24;45.36;100679.34;5031262;28;45458;-73
2022/06/25 09:05:26;;;;;;;;;3.00;2.00;;;;;22.00;44.12;100659.03;5031209;28;45469;-74
2022/06/25 09:07:56;;;;;;;;;1.00;1.00;;;;;22.05;43.68;100677.03;5031718;28;45237;-74
2022/06/25 09:10:23;;;;;;;;;2.00;1.00;;;;;21.93;43.85;100679.13;5030214;28;45156;-74
2022/06/25 09:12:54;;;;;;;;;1.67;1.67;;;;;21.88;45.19;100676.53;5024599;28;45556;-73
2022/06/25 09:15:21;;;;;;;;;2.00;2.00;;;;;21.73;46.88;100650.56;5031165;28;45835;-74
2022/06/25 09:17:51;;;;;;;;;2.67;1.00;;;;;21.84;47.88;100672.94;5031174;28;45062;-74
2022/06/25 09:20:18;;;;;;;;;1.00;1.00;;;;;21.80;48.52;100648.59;5028903;28;45155;-74
2022/06/25 09:23:13;;;;;;;;;3.00;3.00;;;;;21.95;48.32;100664.56;5026322;28;44926;-72
2022/06/25 09:25:41;;;;;;;;;2.00;2.00;;;;;21.70;48.62;100621.59;5027026;28;45622;-73
2022/06/25 09:28:06;;;;;;;;;3.67;3.67;;;;;21.98;48.55;100661.78;5021402;28;45265;-73
2022/06/25 09:30:32;;;;;;;;;2.00;2.00;;;;;21.93;48.23;100638.31;5028082;28;45088;-72
2022/06/25 09:32:57;;;;;;;;;4.00;3.00;;;;;22.05;47.36;100655.28;5028209;28;45029;-74
2022/06/25 09:35:36;;;;;;;;;3.00;1.00;;;;;22.08;47.49;100643.44;5028371;28;46619;-75
2022/06/25 09:38:06;;;;;;;;;6.00;3.00;;;;;22.11;47.86;100650.63;5024091;28;45356;-73
2022/06/25 09:40:32;;;;;;;;;4.00;3.00;;;;;22.15;46.94;100647.78;5029629;28;44993;-75
2022/06/25 09:42:58;;;;;;;;;2.00;2.00;;;;;22.17;47.04;100651.38;5030970;28;44988;-72
2022/06/25 09:45:24;;;;;;;;;2.00;2.00;;;;;22.15;47.77;100649.63;5028993;28;45683;-75
2022/06/25 09:47:49;;;;;;;;;5.33;5.33;;;;;22.24;46.63;100658.47;5024729;28;45192;-75
2022/06/25 09:50:18;;;;;;;;;6.00;4.00;;;;;22.31;45.92;100652.94;5031000;28;45336;-74
2022/06/25 09:52:55;;;;;;;;;3.00;3.00;;;;;22.20;45.25;100640.41;5024920;28;45123;-74
2022/06/25 09:55:26;;;;;;;;;3.67;3.67;;;;;22.34;44.90;100653.75;5029340;28;45583;-74
2022/06/25 09:57:53;;;;;;;;;1.00;1.00;;;;;22.22;44.24;100641.31;5030484;28;45162;-74
2022/06/25 10:00:20;;;;;;;;;2.00;2.00;;;;;22.25;44.03;100662.09;5031432;28;45029;-73
2022/06/25 10:02:48;;;;;;;;;1.00;1.00;;;;;22.24;44.76;100666.66;5029732;28;44931;-73
2022/06/25 10:05:16;;;;;;;;;1.67;1.67;;;;;22.13;44.55;100655.09;5030623;28;45597;-74
2022/06/25 10:08:01;;;;;;;;;1.67;1.67;;;;;22.19;44.95;100663.13;5029815;28;45164;-74
2022/06/25 10:10:33;;;;;;;;;6.00;6.00;;;;;22.19;45.10;100663.13;5030247;28;45336;-74
2022/06/25 10:13:00;;;;;;;;;3.33;3.33;;;;;22.22;44.98;100654.91;5030757;28;45241;-74
2022/06/25 10:15:27;;;;;;;;;18.25;16.00;;;;;22.06;45.13;100626.25;5030406;28;45231;-75
2022/06/25 10:17:53;;;;;;;;;6.00;3.33;;;;;22.14;45.25;100636.94;5030314;28;45107;-74
2022/06/25 10:20:20;;;;;;;;;3.33;3.33;;;;;22.11;45.31;100627.03;5025748;28;44939;-74
2022/06/25 10:22:47;;;;;;;;;3.67;3.00;;;;;21.99;45.56;100619.16;5031026;28;45180;-74
2022/06/25 10:25:15;;;;;;;;;5.00;4.00;;;;;22.29;45.52;100647.53;5030321;28;45111;-74
2022/06/25 10:27:45;;;;;;;;;5.67;4.00;;;;;22.17;45.41;100626.88;5030666;28;45106;-74
2022/06/25 10:30:13;;;;;;;;;2.33;2.33;;;;;22.27;45.11;100635.72;5030229;28;45024;-73
2022/06/25 10:32:51;;;;;;;;;5.33;4.00;;;;;22.25;45.87;100640.31;5029922;28;44990;-72
2022/06/25 10:35:29;;;;;;;;;5.50;4.50;;;;;21.38;46.63;100494.50;5029663;28;45536;-74
2022/06/25 10:37:58;;;;;;;;;9.33;5.00;;;;;22.32;46.45;100625.66;5030135;28;45206;-74
2022/06/25 10:40:24;;;;;;;;;7.00;7.00;;;;;22.52;46.95;100654.22;5034024;28;45148;-72
2022/06/25 10:43:01;;;;;;;;;4.00;1.33;;;;;22.56;45.87;100648.66;5034186;28;45193;-73
2022/06/25 10:45:26;;;;;;;;;2.00;2.00;;;;;22.60;45.83;100652.19;5033395;28;45782;-76
2022/06/25 10:47:59;;;;;;;;;6.00;3.00;;;;;22.52;45.32;100627.91;5033096;28;45014;-74
2022/06/25 10:50:25;;;;;;;;;6.67;3.67;;;;;22.69;45.31;100642.94;5029290;28;45177;-74
2022/06/25 10:53:05;;;;;;;;;5.00;2.67;;;;;22.71;45.24;100649.22;5033554;28;45071;-74
2022/06/25 10:55:48;;;;;;;;;4.00;2.00;;;;;22.69;45.13;100651.09;5032775;28;45480;-74
2022/06/25 10:58:17;;;;;;;;;4.67;4.00;;;;;22.58;44.49;100622.28;5033240;28;45358;-76
2022/06/25 11:00:49;;;;;;;;;2.33;2.33;;;;;22.83;44.38;100643.44;5033823;28;44986;-74
2022/06/25 11:03:16;;;;;;;;;3.67;2.67;;;;;22.77;44.55;100624.56;5033630;28;45191;-74
2022/06/25 11:05:43;;;;;;;;;3.00;3.00;;;;;22.79;43.75;100611.78;5034769;28;47545;-73
2022/06/25 11:08:08;;;;;;;;;6.00;3.00;;;;;22.89;43.91;100628.78;5031519;28;45091;-73
2022/06/25 11:10:35;;;;;;;;;2.00;2.00;;;;;23.10;43.42;100660.03;5034242;28;44855;-74
2022/06/25 11:13:01;;;;;;;;;4.33;3.00;;;;;23.00;43.84;100627.56;5035535;28;45038;-74
2022/06/25 11:15:38;;;;;;;;;7.00;5.00;;;;;23.19;43.51;100652.50;5036173;28;46219;-75
2022/06/25 11:18:10;;;;;;;;;3.00;2.67;;;;;23.12;43.89;100630.91;5035135;28;45020;-74
2022/06/25 11:20:37;;;;;;;;;5.67;4.00;;;;;23.15;43.93;100658.97;5033343;28;45021;-73
2022/06/25 11:23:03;;;;;;;;;3.00;3.00;;;;;22.58;44.10;100551.50;5027610;28;45284;-75
2022/06/25 11:28:49;;;;;;;;;3.00;3.00;;;;;23.08;43.79;100626.47;5012424;28;45661;-74
2022/06/25 11:31:19;;;;;;;;;5.00;3.00;;;;;23.02;43.49;100641.13;5014510;28;45427;-74
2022/06/25 11:33:45;;;;;;;;;8.00;6.00;;;;;22.83;44.04;100621.66;5015837;28;45435;-73